sensor_id;sensor_type;location;lat;lon;timestamp;P1;durP1;ratioP1;P2;durP2;ratioP2
43560;SDS011;32305;46.410;17.394;2023-04-29T00:01:24;0.88;;;0.88;;
43560;SDS011;32305;46.410;17.394;2023-04-29T00:03:51;1.05;;;1.05;;
43560;SDS011;32305;46.410;17.394;2023-04-29T00:06:19;0.90;;;0.90;;
43560;SDS011;32305;46.410;17.394;2023-04-29T00:08:47;0.90;;;0.90;;
43560;SDS011;32305;46.410;17.394;2023-04-29T00:11:14;1.13;;;0.80;;
43560;SDS011;32305;46.410;17.394;2023-04-29T00:13:41;0.90;;;0.90;;
43560;SDS011;32305;46.410;17.394;2023-04-29T00:16:08;1.00;;;0.95;;
43560;SDS011;32305;46.410;17.394;2023-04-29T00:18:35;0.70;;;0.60;;
43560;SDS011;32305;46.410;17.394;2023-04-29T00:21:03;1.45;;;0.98;;
43560;SDS011;32305;46.410;17.394;2023-04-29T00:23:34;0.85;;;0.80;;
43560;SDS011;32305;46.410;17.394;2023-04-29T00:26:01;1.05;;;0.85;;
43560;SDS011;32305;46.410;17.394;2023-04-29T00:28:28;0.82;;;0.82;;
43560;SDS011;32305;46.410;17.394;2023-04-29T00:30:55;1.40;;;0.90;;
43560;SDS011;32305;46.410;17.394;2023-04-29T00:33:23;1.15;;;0.90;;
43560;SDS011;32305;46.410;17.394;2023-04-29T00:35:50;0.70;;;0.70;;
43560;SDS011;32305;46.410;17.394;2023-04-29T00:38:17;1.48;;;1.15;;
43560;SDS011;32305;46.410;17.394;2023-04-29T00:40:44;1.08;;;1.08;;
43560;SDS011;32305;46.410;17.394;2023-04-29T00:43:12;1.20;;;1.10;;
43560;SDS011;32305;46.410;17.394;2023-04-29T00:45:39;0.90;;;0.90;;
43560;SDS011;32305;46.410;17.394;2023-04-29T00:48:06;0.90;;;0.90;;
43560;SDS011;32305;46.410;17.394;2023-04-29T00:50:33;1.27;;;1.20;;
43560;SDS011;32305;46.410;17.394;2023-04-29T00:53:02;0.75;;;0.75;;
43560;SDS011;32305;46.410;17.394;2023-04-29T00:55:30;0.90;;;0.90;;
43560;SDS011;32305;46.410;17.394;2023-04-29T00:57:59;0.63;;;0.63;;
43560;SDS011;32305;46.410;17.394;2023-04-29T01:00:28;1.10;;;1.08;;
43560;SDS011;32305;46.410;17.394;2023-04-29T01:02:56;1.23;;;0.90;;
43560;SDS011;32305;46.410;17.394;2023-04-29T01:05:25;0.90;;;0.90;;
43560;SDS011;32305;46.410;17.394;2023-04-29T01:11:02;0.80;;;0.80;;
43560;SDS011;32305;46.410;17.394;2023-04-29T01:13:44;1.00;;;0.82;;
43560;SDS011;32305;46.410;17.394;2023-04-29T01:16:20;0.80;;;0.80;;
43560;SDS011;32305;46.410;17.394;2023-04-29T01:18:56;0.90;;;0.90;;
43560;SDS011;32305;46.410;17.394;2023-04-29T01:21:26;0.77;;;0.77;;
43560;SDS011;32305;46.410;17.394;2023-04-29T01:23:53;0.80;;;0.80;;
43560;SDS011;32305;46.410;17.394;2023-04-29T01:26:24;0.70;;;0.70;;
43560;SDS011;32305;46.410;17.394;2023-04-29T01:32:04;0.90;;;0.90;;
43560;SDS011;32305;46.410;17.394;2023-04-29T01:34:46;1.05;;;0.82;;
43560;SDS011;32305;46.410;17.394;2023-04-29T01:37:36;1.42;;;1.00;;
43560;SDS011;32305;46.410;17.394;2023-04-29T01:40:11;0.80;;;0.80;;
43560;SDS011;32305;46.410;17.394;2023-04-29T01:42:46;0.95;;;0.70;;
43560;SDS011;32305;46.410;17.394;2023-04-29T01:45:18;0.80;;;0.80;;
43560;SDS011;32305;46.410;17.394;2023-04-29T01:47:48;1.17;;;0.95;;
43560;SDS011;32305;46.410;17.394;2023-04-29T01:50:19;0.98;;;0.90;;
43560;SDS011;32305;46.410;17.394;2023-04-29T01:52:46;0.65;;;0.65;;
43560;SDS011;32305;46.410;17.394;2023-04-29T01:55:13;0.63;;;0.63;;
43560;SDS011;32305;46.410;17.394;2023-04-29T01:57:41;0.93;;;0.93;;
43560;SDS011;32305;46.410;17.394;2023-04-29T02:00:08;1.02;;;1.02;;
43560;SDS011;32305;46.410;17.394;2023-04-29T02:02:36;0.63;;;0.63;;
43560;SDS011;32305;46.410;17.394;2023-04-29T02:05:04;1.35;;;1.00;;
43560;SDS011;32305;46.410;17.394;2023-04-29T02:07:31;0.88;;;0.88;;
43560;SDS011;32305;46.410;17.394;2023-04-29T02:09:58;1.45;;;0.80;;
43560;SDS011;32305;46.410;17.394;2023-04-29T02:12:26;1.02;;;0.93;;
43560;SDS011;32305;46.410;17.394;2023-04-29T02:14:53;0.90;;;0.80;;
43560;SDS011;32305;46.410;17.394;2023-04-29T02:17:20;1.00;;;0.90;;
43560;SDS011;32305;46.410;17.394;2023-04-29T02:19:47;1.10;;;0.95;;
43560;SDS011;32305;46.410;17.394;2023-04-29T02:22:14;0.65;;;0.65;;
43560;SDS011;32305;46.410;17.394;2023-04-29T02:24:42;0.75;;;0.75;;
43560;SDS011;32305;46.410;17.394;2023-04-29T02:27:09;0.70;;;0.70;;
43560;SDS011;32305;46.410;17.394;2023-04-29T02:29:36;0.93;;;0.93;;
43560;SDS011;32305;46.410;17.394;2023-04-29T02:32:03;0.85;;;0.85;;
43560;SDS011;32305;46.410;17.394;2023-04-29T02:34:31;0.80;;;0.80;;
43560;SDS011;32305;46.410;17.394;2023-04-29T02:36:58;1.17;;;0.80;;
43560;SDS011;32305;46.410;17.394;2023-04-29T02:39:26;1.05;;;1.05;;
43560;SDS011;32305;46.410;17.394;2023-04-29T02:41:53;2.33;;;0.90;;
43560;SDS011;32305;46.410;17.394;2023-04-29T02:44:21;1.52;;;0.93;;
43560;SDS011;32305;46.410;17.394;2023-04-29T02:46:48;0.80;;;0.80;;
43560;SDS011;32305;46.410;17.394;2023-04-29T02:49:15;0.70;;;0.70;;
43560;SDS011;32305;46.410;17.394;2023-04-29T02:51:43;1.02;;;0.93;;
43560;SDS011;32305;46.410;17.394;2023-04-29T02:54:10;0.63;;;0.63;;
43560;SDS011;32305;46.410;17.394;2023-04-29T02:56:37;1.08;;;0.82;;
43560;SDS011;32305;46.410;17.394;2023-04-29T02:59:04;0.77;;;0.77;;
43560;SDS011;32305;46.410;17.394;2023-04-29T03:01:31;0.88;;;0.85;;
43560;SDS011;32305;46.410;17.394;2023-04-29T03:03:58;0.88;;;0.88;;
43560;SDS011;32305;46.410;17.394;2023-04-29T03:06:26;0.73;;;0.73;;
43560;SDS011;32305;46.410;17.394;2023-04-29T03:08:55;0.80;;;0.80;;
43560;SDS011;32305;46.410;17.394;2023-04-29T03:11:23;0.80;;;0.80;;
43560;SDS011;32305;46.410;17.394;2023-04-29T03:13:50;0.80;;;0.80;;
43560;SDS011;32305;46.410;17.394;2023-04-29T03:16:17;0.85;;;0.82;;
43560;SDS011;32305;46.410;17.394;2023-04-29T03:18:44;0.98;;;0.90;;
43560;SDS011;32305;46.410;17.394;2023-04-29T03:21:12;1.00;;;0.90;;
43560;SDS011;32305;46.410;17.394;2023-04-29T03:23:39;0.82;;;0.82;;
43560;SDS011;32305;46.410;17.394;2023-04-29T03:26:06;0.80;;;0.70;;
43560;SDS011;32305;46.410;17.394;2023-04-29T03:28:34;1.08;;;0.98;;
43560;SDS011;32305;46.410;17.394;2023-04-29T03:31:01;0.82;;;0.82;;
43560;SDS011;32305;46.410;17.394;2023-04-29T03:33:28;0.90;;;0.75;;
43560;SDS011;32305;46.410;17.394;2023-04-29T03:35:55;0.63;;;0.63;;
43560;SDS011;32305;46.410;17.394;2023-04-29T03:38:22;0.75;;;0.75;;
43560;SDS011;32305;46.410;17.394;2023-04-29T03:40:51;0.75;;;0.75;;
43560;SDS011;32305;46.410;17.394;2023-04-29T03:43:18;0.80;;;0.80;;
43560;SDS011;32305;46.410;17.394;2023-04-29T03:45:45;1.27;;;1.10;;
43560;SDS011;32305;46.410;17.394;2023-04-29T03:48:12;1.13;;;1.02;;
43560;SDS011;32305;46.410;17.394;2023-04-29T03:50:40;1.30;;;1.00;;
43560;SDS011;32305;46.410;17.394;2023-04-29T03:53:07;1.27;;;1.17;;
43560;SDS011;32305;46.410;17.394;2023-04-29T03:55:34;1.10;;;1.00;;
43560;SDS011;32305;46.410;17.394;2023-04-29T03:58:01;0.90;;;0.80;;
43560;SDS011;32305;46.410;17.394;2023-04-29T04:00:29;0.73;;;0.73;;
43560;SDS011;32305;46.410;17.394;2023-04-29T04:02:57;0.68;;;0.68;;
43560;SDS011;32305;46.410;17.394;2023-04-29T04:05:26;0.90;;;0.90;;
43560;SDS011;32305;46.410;17.394;2023-04-29T04:07:53;0.75;;;0.75;;
43560;SDS011;32305;46.410;17.394;2023-04-29T04:10:20;1.58;;;1.15;;
43560;SDS011;32305;46.410;17.394;2023-04-29T04:12:47;0.90;;;0.90;;
43560;SDS011;32305;46.410;17.394;2023-04-29T04:15:14;1.00;;;0.90;;
43560;SDS011;32305;46.410;17.394;2023-04-29T04:17:42;0.93;;;0.88;;
43560;SDS011;32305;46.410;17.394;2023-04-29T04:20:09;0.70;;;0.70;;
43560;SDS011;32305;46.410;17.394;2023-04-29T04:22:37;1.15;;;0.95;;
43560;SDS011;32305;46.410;17.394;2023-04-29T04:25:04;0.70;;;0.70;;
43560;SDS011;32305;46.410;17.394;2023-04-29T04:27:32;1.48;;;1.08;;
43560;SDS011;32305;46.410;17.394;2023-04-29T04:29:59;2.53;;;0.75;;
43560;SDS011;32305;46.410;17.394;2023-04-29T04:32:26;0.90;;;0.90;;
43560;SDS011;32305;46.410;17.394;2023-04-29T04:34:54;0.80;;;0.70;;
43560;SDS011;32305;46.410;17.394;2023-04-29T04:37:21;1.63;;;1.00;;
43560;SDS011;32305;46.410;17.394;2023-04-29T04:39:48;1.08;;;0.95;;
43560;SDS011;32305;46.410;17.394;2023-04-29T04:42:16;1.05;;;1.05;;
43560;SDS011;32305;46.410;17.394;2023-04-29T04:44:43;1.38;;;1.27;;
43560;SDS011;32305;46.410;17.394;2023-04-29T04:47:10;1.35;;;1.25;;
43560;SDS011;32305;46.410;17.394;2023-04-29T04:49:37;1.02;;;0.93;;
43560;SDS011;32305;46.410;17.394;2023-04-29T04:52:04;1.17;;;1.17;;
43560;SDS011;32305;46.410;17.394;2023-04-29T04:54:31;1.13;;;1.13;;
43560;SDS011;32305;46.410;17.394;2023-04-29T04:56:59;1.15;;;1.02;;
43560;SDS011;32305;46.410;17.394;2023-04-29T04:59:26;1.08;;;1.08;;
43560;SDS011;32305;46.410;17.394;2023-04-29T05:01:53;1.38;;;1.35;;
43560;SDS011;32305;46.410;17.394;2023-04-29T05:04:20;1.70;;;1.60;;
43560;SDS011;32305;46.410;17.394;2023-04-29T05:06:48;1.40;;;1.30;;
43560;SDS011;32305;46.410;17.394;2023-04-29T05:09:15;1.17;;;1.08;;
43560;SDS011;32305;46.410;17.394;2023-04-29T05:11:42;1.30;;;1.20;;
43560;SDS011;32305;46.410;17.394;2023-04-29T05:14:09;1.30;;;1.20;;
43560;SDS011;32305;46.410;17.394;2023-04-29T05:16:37;1.05;;;1.05;;
43560;SDS011;32305;46.410;17.394;2023-04-29T05:19:04;1.27;;;1.05;;
43560;SDS011;32305;46.410;17.394;2023-04-29T05:21:31;1.80;;;1.38;;
43560;SDS011;32305;46.410;17.394;2023-04-29T05:23:58;1.30;;;1.20;;
43560;SDS011;32305;46.410;17.394;2023-04-29T05:26:26;2.05;;;1.42;;
43560;SDS011;32305;46.410;17.394;2023-04-29T05:28:53;1.15;;;1.05;;
43560;SDS011;32305;46.410;17.394;2023-04-29T05:31:20;2.40;;;1.20;;
43560;SDS011;32305;46.410;17.394;2023-04-29T05:33:47;2.65;;;1.30;;
43560;SDS011;32305;46.410;17.394;2023-04-29T05:36:14;2.08;;;1.30;;
43560;SDS011;32305;46.410;17.394;2023-04-29T05:38:42;1.65;;;1.55;;
43560;SDS011;32305;46.410;17.394;2023-04-29T05:41:10;3.25;;;1.50;;
43560;SDS011;32305;46.410;17.394;2023-04-29T05:43:39;1.55;;;1.45;;
43560;SDS011;32305;46.410;17.394;2023-04-29T05:46:06;1.83;;;1.67;;
43560;SDS011;32305;46.410;17.394;2023-04-29T05:48:33;3.53;;;1.88;;
43560;SDS011;32305;46.410;17.394;2023-04-29T05:51:00;1.85;;;1.60;;
43560;SDS011;32305;46.410;17.394;2023-04-29T05:53:28;2.75;;;1.90;;
43560;SDS011;32305;46.410;17.394;2023-04-29T05:55:55;3.13;;;1.40;;
43560;SDS011;32305;46.410;17.394;2023-04-29T05:58:22;2.15;;;1.95;;
43560;SDS011;32305;46.410;17.394;2023-04-29T06:00:50;2.00;;;1.75;;
43560;SDS011;32305;46.410;17.394;2023-04-29T06:03:18;2.42;;;1.77;;
43560;SDS011;32305;46.410;17.394;2023-04-29T06:05:45;2.17;;;1.88;;
43560;SDS011;32305;46.410;17.394;2023-04-29T06:08:13;1.85;;;1.70;;
43560;SDS011;32305;46.410;17.394;2023-04-29T06:10:40;4.20;;;2.10;;
43560;SDS011;32305;46.410;17.394;2023-04-29T06:13:07;2.47;;;1.73;;
43560;SDS011;32305;46.410;17.394;2023-04-29T06:15:34;2.47;;;2.15;;
43560;SDS011;32305;46.410;17.394;2023-04-29T06:18:01;4.50;;;2.20;;
43560;SDS011;32305;46.410;17.394;2023-04-29T06:20:28;1.75;;;1.65;;
43560;SDS011;32305;46.410;17.394;2023-04-29T06:22:56;1.35;;;1.25;;
43560;SDS011;32305;46.410;17.394;2023-04-29T06:25:23;3.22;;;2.15;;
43560;SDS011;32305;46.410;17.394;2023-04-29T06:27:50;2.05;;;1.85;;
43560;SDS011;32305;46.410;17.394;2023-04-29T06:30:17;1.95;;;1.73;;
43560;SDS011;32305;46.410;17.394;2023-04-29T06:32:44;8.80;;;1.60;;
43560;SDS011;32305;46.410;17.394;2023-04-29T06:35:12;2.72;;;2.28;;
43560;SDS011;32305;46.410;17.394;2023-04-29T06:37:39;2.13;;;1.92;;
43560;SDS011;32305;46.410;17.394;2023-04-29T06:40:06;3.40;;;1.88;;
43560;SDS011;32305;46.410;17.394;2023-04-29T06:42:34;2.33;;;2.13;;
43560;SDS011;32305;46.410;17.394;2023-04-29T06:45:02;1.75;;;1.65;;
43560;SDS011;32305;46.410;17.394;2023-04-29T06:47:30;4.68;;;1.80;;
43560;SDS011;32305;46.410;17.394;2023-04-29T06:49:58;2.20;;;2.00;;
43560;SDS011;32305;46.410;17.394;2023-04-29T06:52:25;2.78;;;1.90;;
43560;SDS011;32305;46.410;17.394;2023-04-29T06:54:52;1.92;;;1.83;;
43560;SDS011;32305;46.410;17.394;2023-04-29T06:57:19;4.13;;;2.00;;
43560;SDS011;32305;46.410;17.394;2023-04-29T06:59:47;6.68;;;2.03;;
43560;SDS011;32305;46.410;17.394;2023-04-29T07:02:14;2.03;;;1.90;;
43560;SDS011;32305;46.410;17.394;2023-04-29T07:04:41;2.72;;;1.80;;
43560;SDS011;32305;46.410;17.394;2023-04-29T07:07:09;1.73;;;1.63;;
43560;SDS011;32305;46.410;17.394;2023-04-29T07:09:36;2.00;;;1.83;;
43560;SDS011;32305;46.410;17.394;2023-04-29T07:12:03;1.90;;;1.80;;
43560;SDS011;32305;46.410;17.394;2023-04-29T07:14:30;2.55;;;1.77;;
43560;SDS011;32305;46.410;17.394;2023-04-29T07:16:58;3.10;;;2.00;;
43560;SDS011;32305;46.410;17.394;2023-04-29T07:19:25;3.38;;;1.90;;
43560;SDS011;32305;46.410;17.394;2023-04-29T07:21:53;2.67;;;2.20;;
43560;SDS011;32305;46.410;17.394;2023-04-29T07:24:20;2.35;;;1.95;;
43560;SDS011;32305;46.410;17.394;2023-04-29T07:26:48;2.42;;;1.80;;
43560;SDS011;32305;46.410;17.394;2023-04-29T07:29:15;2.15;;;1.95;;
43560;SDS011;32305;46.410;17.394;2023-04-29T07:31:43;2.10;;;1.83;;
43560;SDS011;32305;46.410;17.394;2023-04-29T07:34:10;1.83;;;1.70;;
43560;SDS011;32305;46.410;17.394;2023-04-29T07:36:37;2.33;;;1.77;;
43560;SDS011;32305;46.410;17.394;2023-04-29T07:39:05;2.60;;;1.92;;
43560;SDS011;32305;46.410;17.394;2023-04-29T07:41:32;2.03;;;1.65;;
43560;SDS011;32305;46.410;17.394;2023-04-29T07:43:59;2.15;;;1.98;;
43560;SDS011;32305;46.410;17.394;2023-04-29T07:46:26;3.03;;;2.15;;
43560;SDS011;32305;46.410;17.394;2023-04-29T07:48:53;1.95;;;1.85;;
43560;SDS011;32305;46.410;17.394;2023-04-29T07:51:21;2.97;;;1.48;;
43560;SDS011;32305;46.410;17.394;2023-04-29T07:53:48;2.13;;;2.03;;
43560;SDS011;32305;46.410;17.394;2023-04-29T07:56:15;3.20;;;2.08;;
43560;SDS011;32305;46.410;17.394;2023-04-29T07:58:43;2.05;;;1.92;;
43560;SDS011;32305;46.410;17.394;2023-04-29T08:01:10;2.63;;;1.90;;
43560;SDS011;32305;46.410;17.394;2023-04-29T08:03:37;1.65;;;1.55;;
43560;SDS011;32305;46.410;17.394;2023-04-29T08:06:07;2.53;;;1.75;;
43560;SDS011;32305;46.410;17.394;2023-04-29T08:08:34;5.57;;;1.80;;
43560;SDS011;32305;46.410;17.394;2023-04-29T08:11:01;1.70;;;1.60;;
43560;SDS011;32305;46.410;17.394;2023-04-29T08:13:29;1.85;;;1.55;;
43560;SDS011;32305;46.410;17.394;2023-04-29T08:15:56;4.22;;;1.88;;
43560;SDS011;32305;46.410;17.394;2023-04-29T08:18:23;2.20;;;2.00;;
43560;SDS011;32305;46.410;17.394;2023-04-29T08:20:50;2.03;;;1.83;;
43560;SDS011;32305;46.410;17.394;2023-04-29T08:23:17;1.65;;;1.55;;
43560;SDS011;32305;46.410;17.394;2023-04-29T08:25:45;5.45;;;1.83;;
43560;SDS011;32305;46.410;17.394;2023-04-29T08:28:12;1.70;;;1.50;;
43560;SDS011;32305;46.410;17.394;2023-04-29T08:30:40;2.65;;;1.83;;
43560;SDS011;32305;46.410;17.394;2023-04-29T08:33:07;2.38;;;2.17;;
43560;SDS011;32305;46.410;17.394;2023-04-29T08:35:34;1.60;;;1.50;;
43560;SDS011;32305;46.410;17.394;2023-04-29T08:38:05;4.93;;;1.55;;
43560;SDS011;32305;46.410;17.394;2023-04-29T08:40:33;2.85;;;1.73;;
43560;SDS011;32305;46.410;17.394;2023-04-29T08:43:02;1.98;;;1.80;;
43560;SDS011;32305;46.410;17.394;2023-04-29T08:45:30;1.45;;;1.35;;
43560;SDS011;32305;46.410;17.394;2023-04-29T08:48:00;1.30;;;1.13;;
43560;SDS011;32305;46.410;17.394;2023-04-29T08:50:29;2.92;;;1.35;;
43560;SDS011;32305;46.410;17.394;2023-04-29T08:52:58;1.50;;;1.40;;
43560;SDS011;32305;46.410;17.394;2023-04-29T08:55:25;2.25;;;2.05;;
43560;SDS011;32305;46.410;17.394;2023-04-29T08:57:53;2.75;;;1.98;;
43560;SDS011;32305;46.410;17.394;2023-04-29T09:00:22;1.87;;;1.77;;
43560;SDS011;32305;46.410;17.394;2023-04-29T09:02:50;2.08;;;1.40;;
43560;SDS011;32305;46.410;17.394;2023-04-29T09:05:21;2.15;;;2.00;;
43560;SDS011;32305;46.410;17.394;2023-04-29T09:07:49;2.47;;;1.65;;
43560;SDS011;32305;46.410;17.394;2023-04-29T09:10:18;2.22;;;1.95;;
43560;SDS011;32305;46.410;17.394;2023-04-29T09:12:45;4.30;;;1.65;;
43560;SDS011;32305;46.410;17.394;2023-04-29T09:15:13;2.05;;;1.42;;
43560;SDS011;32305;46.410;17.394;2023-04-29T09:17:44;1.95;;;1.50;;
43560;SDS011;32305;46.410;17.394;2023-04-29T09:20:25;3.13;;;1.67;;
43560;SDS011;32305;46.410;17.394;2023-04-29T09:22:54;2.05;;;1.80;;
43560;SDS011;32305;46.410;17.394;2023-04-29T09:25:23;1.65;;;1.52;;
43560;SDS011;32305;46.410;17.394;2023-04-29T09:27:53;1.63;;;1.52;;
43560;SDS011;32305;46.410;17.394;2023-04-29T09:30:21;2.97;;;2.17;;
43560;SDS011;32305;46.410;17.394;2023-04-29T09:33:05;1.33;;;1.23;;
43560;SDS011;32305;46.410;17.394;2023-04-29T09:35:34;1.95;;;1.80;;
43560;SDS011;32305;46.410;17.394;2023-04-29T09:38:09;2.78;;;1.60;;
43560;SDS011;32305;46.410;17.394;2023-04-29T09:40:39;2.00;;;1.67;;
43560;SDS011;32305;46.410;17.394;2023-04-29T09:43:23;3.13;;;1.70;;
43560;SDS011;32305;46.410;17.394;2023-04-29T09:45:51;1.50;;;1.30;;
43560;SDS011;32305;46.410;17.394;2023-04-29T09:48:18;2.30;;;1.60;;
43560;SDS011;32305;46.410;17.394;2023-04-29T09:50:58;1.58;;;1.48;;
43560;SDS011;32305;46.410;17.394;2023-04-29T09:53:30;2.55;;;1.55;;
43560;SDS011;32305;46.410;17.394;2023-04-29T09:56:01;3.28;;;1.83;;
43560;SDS011;32305;46.410;17.394;2023-04-29T09:58:32;1.95;;;1.75;;
43560;SDS011;32305;46.410;17.394;2023-04-29T10:01:04;1.50;;;1.40;;
43560;SDS011;32305;46.410;17.394;2023-04-29T10:03:33;1.75;;;1.65;;
43560;SDS011;32305;46.410;17.394;2023-04-29T10:08:31;1.55;;;1.30;;
43560;SDS011;32305;46.410;17.394;2023-04-29T10:11:00;1.65;;;1.55;;
43560;SDS011;32305;46.410;17.394;2023-04-29T10:13:29;1.55;;;1.45;;
43560;SDS011;32305;46.410;17.394;2023-04-29T10:16:06;1.70;;;1.60;;
43560;SDS011;32305;46.410;17.394;2023-04-29T10:18:55;1.73;;;1.63;;
43560;SDS011;32305;46.410;17.394;2023-04-29T10:21:26;2.65;;;1.90;;
43560;SDS011;32305;46.410;17.394;2023-04-29T10:23:57;2.28;;;1.55;;
43560;SDS011;32305;46.410;17.394;2023-04-29T10:26:27;1.70;;;1.50;;
43560;SDS011;32305;46.410;17.394;2023-04-29T10:28:55;1.67;;;1.58;;
43560;SDS011;32305;46.410;17.394;2023-04-29T10:31:26;1.33;;;1.23;;
43560;SDS011;32305;46.410;17.394;2023-04-29T10:33:54;1.80;;;1.65;;
43560;SDS011;32305;46.410;17.394;2023-04-29T10:36:27;1.52;;;1.42;;
43560;SDS011;32305;46.410;17.394;2023-04-29T10:39:00;1.30;;;1.23;;
43560;SDS011;32305;46.410;17.394;2023-04-29T10:41:36;1.80;;;1.70;;
43560;SDS011;32305;46.410;17.394;2023-04-29T10:44:12;1.67;;;1.58;;
43560;SDS011;32305;46.410;17.394;2023-04-29T10:46:39;1.48;;;1.30;;
43560;SDS011;32305;46.410;17.394;2023-04-29T10:49:06;3.33;;;1.77;;
43560;SDS011;32305;46.410;17.394;2023-04-29T10:51:40;1.88;;;1.60;;
43560;SDS011;32305;46.410;17.394;2023-04-29T10:54:09;1.50;;;1.40;;
43560;SDS011;32305;46.410;17.394;2023-04-29T10:56:52;1.50;;;1.40;;
43560;SDS011;32305;46.410;17.394;2023-04-29T11:02:11;1.55;;;1.45;;
43560;SDS011;32305;46.410;17.394;2023-04-29T11:07:34;1.10;;;1.05;;
43560;SDS011;32305;46.410;17.394;2023-04-29T11:10:02;1.55;;;1.45;;
43560;SDS011;32305;46.410;17.394;2023-04-29T11:12:29;1.55;;;1.45;;
43560;SDS011;32305;46.410;17.394;2023-04-29T11:14:57;1.40;;;1.30;;
43560;SDS011;32305;46.410;17.394;2023-04-29T11:17:33;1.55;;;1.27;;
43560;SDS011;32305;46.410;17.394;2023-04-29T11:20:02;1.60;;;1.50;;
43560;SDS011;32305;46.410;17.394;2023-04-29T11:22:29;1.45;;;1.35;;
43560;SDS011;32305;46.410;17.394;2023-04-29T11:25:00;1.42;;;1.23;;
43560;SDS011;32305;46.410;17.394;2023-04-29T11:27:35;1.70;;;1.50;;
43560;SDS011;32305;46.410;17.394;2023-04-29T11:30:05;1.50;;;1.40;;
43560;SDS011;32305;46.410;17.394;2023-04-29T11:32:37;1.45;;;1.35;;
43560;SDS011;32305;46.410;17.394;2023-04-29T11:35:15;1.63;;;1.30;;
43560;SDS011;32305;46.410;17.394;2023-04-29T11:37:45;1.95;;;1.13;;
43560;SDS011;32305;46.410;17.394;2023-04-29T11:40:13;1.20;;;1.10;;
43560;SDS011;32305;46.410;17.394;2023-04-29T11:42:42;1.17;;;1.00;;
43560;SDS011;32305;46.410;17.394;2023-04-29T11:45:17;1.30;;;1.23;;
43560;SDS011;32305;46.410;17.394;2023-04-29T11:47:46;0.98;;;0.98;;
43560;SDS011;32305;46.410;17.394;2023-04-29T11:50:15;1.25;;;1.10;;
43560;SDS011;32305;46.410;17.394;2023-04-29T11:52:45;1.23;;;1.13;;
43560;SDS011;32305;46.410;17.394;2023-04-29T11:55:13;1.13;;;1.13;;
43560;SDS011;32305;46.410;17.394;2023-04-29T11:57:41;1.27;;;1.17;;
43560;SDS011;32305;46.410;17.394;2023-04-29T12:00:10;1.08;;;1.08;;
43560;SDS011;32305;46.410;17.394;2023-04-29T12:02:38;1.30;;;1.03;;
43560;SDS011;32305;46.410;17.394;2023-04-29T12:05:10;1.05;;;1.00;;
43560;SDS011;32305;46.410;17.394;2023-04-29T12:07:39;1.50;;;1.40;;
43560;SDS011;32305;46.410;17.394;2023-04-29T12:10:07;1.38;;;0.98;;
43560;SDS011;32305;46.410;17.394;2023-04-29T12:12:37;0.80;;;0.80;;
43560;SDS011;32305;46.410;17.394;2023-04-29T12:15:07;1.05;;;0.90;;
43560;SDS011;32305;46.410;17.394;2023-04-29T12:17:36;1.33;;;1.23;;
43560;SDS011;32305;46.410;17.394;2023-04-29T12:20:04;1.48;;;1.08;;
43560;SDS011;32305;46.410;17.394;2023-04-29T12:22:32;1.73;;;1.00;;
43560;SDS011;32305;46.410;17.394;2023-04-29T12:25:03;0.88;;;0.88;;
43560;SDS011;32305;46.410;17.394;2023-04-29T12:27:31;1.42;;;1.17;;
43560;SDS011;32305;46.410;17.394;2023-04-29T12:29:59;0.77;;;0.75;;
43560;SDS011;32305;46.410;17.394;2023-04-29T12:32:26;0.70;;;0.70;;
43560;SDS011;32305;46.410;17.394;2023-04-29T12:34:54;1.42;;;0.98;;
43560;SDS011;32305;46.410;17.394;2023-04-29T12:37:21;1.00;;;1.00;;
43560;SDS011;32305;46.410;17.394;2023-04-29T12:39:49;0.93;;;0.93;;
43560;SDS011;32305;46.410;17.394;2023-04-29T12:42:16;0.90;;;0.90;;
43560;SDS011;32305;46.410;17.394;2023-04-29T12:44:44;1.33;;;0.82;;
43560;SDS011;32305;46.410;17.394;2023-04-29T12:47:15;1.13;;;0.82;;
43560;SDS011;32305;46.410;17.394;2023-04-29T12:49:43;1.15;;;0.98;;
43560;SDS011;32305;46.410;17.394;2023-04-29T12:52:14;0.70;;;0.70;;
43560;SDS011;32305;46.410;17.394;2023-04-29T12:54:44;0.80;;;0.80;;
43560;SDS011;32305;46.410;17.394;2023-04-29T12:57:12;0.85;;;0.85;;
43560;SDS011;32305;46.410;17.394;2023-04-29T12:59:39;0.77;;;0.73;;
43560;SDS011;32305;46.410;17.394;2023-04-29T13:02:07;1.10;;;0.95;;
43560;SDS011;32305;46.410;17.394;2023-04-29T13:04:34;0.75;;;0.75;;
43560;SDS011;32305;46.410;17.394;2023-04-29T13:07:01;0.63;;;0.63;;
43560;SDS011;32305;46.410;17.394;2023-04-29T13:09:29;0.57;;;0.57;;
43560;SDS011;32305;46.410;17.394;2023-04-29T13:11:56;1.05;;;0.85;;
43560;SDS011;32305;46.410;17.394;2023-04-29T13:14:24;1.00;;;0.90;;
43560;SDS011;32305;46.410;17.394;2023-04-29T13:16:52;0.88;;;0.70;;
43560;SDS011;32305;46.410;17.394;2023-04-29T13:19:19;1.20;;;0.80;;
43560;SDS011;32305;46.410;17.394;2023-04-29T13:21:50;1.35;;;0.88;;
43560;SDS011;32305;46.410;17.394;2023-04-29T13:24:17;0.70;;;0.70;;
43560;SDS011;32305;46.410;17.394;2023-04-29T13:26:45;0.70;;;0.70;;
43560;SDS011;32305;46.410;17.394;2023-04-29T13:29:16;0.85;;;0.77;;
43560;SDS011;32305;46.410;17.394;2023-04-29T13:31:44;0.65;;;0.65;;
43560;SDS011;32305;46.410;17.394;2023-04-29T13:34:11;0.65;;;0.65;;
43560;SDS011;32305;46.410;17.394;2023-04-29T13:36:38;0.88;;;0.88;;
43560;SDS011;32305;46.410;17.394;2023-04-29T13:39:05;0.95;;;0.60;;
43560;SDS011;32305;46.410;17.394;2023-04-29T13:41:32;0.68;;;0.68;;
43560;SDS011;32305;46.410;17.394;2023-04-29T13:44:01;0.52;;;0.52;;
43560;SDS011;32305;46.410;17.394;2023-04-29T13:46:32;0.88;;;0.82;;
43560;SDS011;32305;46.410;17.394;2023-04-29T13:49:00;0.75;;;0.70;;
43560;SDS011;32305;46.410;17.394;2023-04-29T13:51:49;1.13;;;0.65;;
43560;SDS011;32305;46.410;17.394;2023-04-29T13:56:49;1.88;;;0.45;;
43560;SDS011;32305;46.410;17.394;2023-04-29T13:59:19;1.42;;;1.00;;
43560;SDS011;32305;46.410;17.394;2023-04-29T14:01:49;0.57;;;0.57;;
43560;SDS011;32305;46.410;17.394;2023-04-29T14:06:46;1.05;;;0.55;;
43560;SDS011;32305;46.410;17.394;2023-04-29T14:09:14;0.88;;;0.88;;
43560;SDS011;32305;46.410;17.394;2023-04-29T14:11:42;0.52;;;0.52;;
43560;SDS011;32305;46.410;17.394;2023-04-29T14:14:09;0.50;;;0.50;;
43560;SDS011;32305;46.410;17.394;2023-04-29T14:16:36;0.82;;;0.70;;
43560;SDS011;32305;46.410;17.394;2023-04-29T14:19:03;0.77;;;0.77;;
43560;SDS011;32305;46.410;17.394;2023-04-29T14:21:30;0.88;;;0.88;;
43560;SDS011;32305;46.410;17.394;2023-04-29T14:23:59;0.77;;;0.77;;
43560;SDS011;32305;46.410;17.394;2023-04-29T14:26:28;0.70;;;0.70;;
43560;SDS011;32305;46.410;17.394;2023-04-29T14:28:57;0.50;;;0.50;;
43560;SDS011;32305;46.410;17.394;2023-04-29T14:31:26;0.50;;;0.50;;
43560;SDS011;32305;46.410;17.394;2023-04-29T14:34:00;0.50;;;0.50;;
43560;SDS011;32305;46.410;17.394;2023-04-29T14:36:28;0.82;;;0.60;;
43560;SDS011;32305;46.410;17.394;2023-04-29T14:38:55;0.80;;;0.80;;
43560;SDS011;32305;46.410;17.394;2023-04-29T14:41:22;0.95;;;0.40;;
43560;SDS011;32305;46.410;17.394;2023-04-29T14:43:50;0.30;;;0.30;;
43560;SDS011;32305;46.410;17.394;2023-04-29T14:46:17;0.77;;;0.57;;
43560;SDS011;32305;46.410;17.394;2023-04-29T14:48:45;0.82;;;0.82;;
43560;SDS011;32305;46.410;17.394;2023-04-29T14:51:12;0.50;;;0.50;;
43560;SDS011;32305;46.410;17.394;2023-04-29T14:53:39;0.57;;;0.57;;
43560;SDS011;32305;46.410;17.394;2023-04-29T14:56:07;1.15;;;0.75;;
43560;SDS011;32305;46.410;17.394;2023-04-29T14:58:34;0.60;;;0.50;;
43560;SDS011;32305;46.410;17.394;2023-04-29T15:01:01;0.60;;;0.45;;